createdAt,value
2017-11-28T00:00:21.646Z,6.89
2017-11-28T00:01:21.639Z,6.91
2017-11-28T00:02:21.630Z,6.93
2017-11-28T00:03:21.622Z,6.97
2017-11-28T00:04:21.618Z,7.08
2017-11-28T00:05:21.610Z,7.04
2017-11-28T00:06:21.603Z,7.01
2017-11-28T00:07:21.593Z,7.05
2017-11-28T00:08:21.585Z,6.94
2017-11-28T00:09:21.573Z,6.89
2017-11-28T00:10:21.566Z,6.93
2017-11-28T00:11:21.557Z,6.93
2017-11-28T00:12:21.548Z,6.94
2017-11-28T00:13:21.545Z,6.94
2017-11-28T00:14:21.540Z,6.94
2017-11-28T00:15:21.529Z,6.93
2017-11-28T00:16:21.523Z,6.94
2017-11-28T00:17:21.511Z,6.93
2017-11-28T00:18:21.505Z,6.90
2017-11-28T00:19:21.494Z,6.90
2017-11-28T00:20:21.486Z,6.90
2017-11-28T00:21:21.480Z,6.86
2017-11-28T00:22:21.465Z,6.96
2017-11-28T00:23:21.458Z,6.90
2017-11-28T00:24:21.455Z,6.96
2017-11-28T00:25:21.441Z,6.93
2017-11-28T00:26:21.433Z,6.93
2017-11-28T00:27:21.424Z,6.99
2017-11-28T00:28:21.416Z,6.93
2017-11-28T00:29:21.413Z,6.91
2017-11-28T00:30:21.409Z,6.94
2017-11-28T00:31:21.396Z,6.99
2017-11-28T00:32:21.387Z,6.97
2017-11-28T00:33:21.379Z,6.86
2017-11-28T00:34:21.371Z,6.90
2017-11-28T00:35:21.362Z,6.89
2017-11-28T00:36:21.354Z,6.91
2017-11-28T00:37:21.343Z,6.91
2017-11-28T00:38:21.334Z,6.93
2017-11-28T00:39:21.333Z,6.97
2017-11-28T00:40:21.317Z,6.93
2017-11-28T00:41:21.309Z,6.91
2017-11-28T00:42:21.308Z,6.94
2017-11-28T00:43:21.292Z,6.93
2017-11-28T00:44:21.285Z,6.94
2017-11-28T00:45:21.279Z,6.91
2017-11-28T00:46:21.271Z,6.93
2017-11-28T00:47:21.263Z,6.86
2017-11-28T00:48:21.272Z,6.89
2017-11-28T00:49:21.250Z,6.81
2017-11-28T00:50:21.239Z,6.90
2017-11-28T00:51:21.230Z,6.94
2017-11-28T00:52:21.221Z,6.93
2017-11-28T00:53:21.210Z,6.86
2017-11-28T00:54:21.200Z,6.93
2017-11-28T00:55:21.192Z,6.89
2017-11-28T00:56:21.184Z,6.87
2017-11-28T00:57:21.180Z,6.94
2017-11-28T00:58:21.167Z,6.91
2017-11-28T00:59:21.159Z,6.82
2017-11-28T01:00:21.152Z,6.91
2017-11-28T01:01:21.148Z,6.91
2017-11-28T01:02:21.139Z,6.94
2017-11-28T01:03:21.130Z,6.93
2017-11-28T01:04:21.123Z,6.90
2017-11-28T01:05:21.114Z,6.96
2017-11-28T01:06:21.111Z,6.91
2017-11-28T01:07:21.097Z,6.90
2017-11-28T01:08:21.089Z,6.90
2017-11-28T01:09:21.077Z,6.89
2017-11-28T01:10:21.069Z,6.91
2017-11-28T01:11:21.059Z,6.93
2017-11-28T01:12:21.051Z,6.93
2017-11-28T01:13:21.044Z,6.87
2017-11-28T01:14:21.035Z,6.89
2017-11-28T01:15:21.026Z,6.89
2017-11-28T01:16:21.018Z,6.93
2017-11-28T01:17:21.014Z,6.90
2017-11-28T01:18:21.008Z,6.89
2017-11-28T01:19:20.997Z,6.89
2017-11-28T01:20:20.988Z,6.94
2017-11-28T01:21:20.982Z,6.79
2017-11-28T01:22:20.973Z,6.93
2017-11-28T01:23:20.964Z,6.82
2017-11-28T01:24:20.956Z,6.87
2017-11-28T01:25:20.943Z,6.90
2017-11-28T01:26:20.936Z,6.89
2017-11-28T01:27:20.926Z,6.82
2017-11-28T01:28:20.948Z,6.69
2017-11-28T01:29:20.917Z,6.79
2017-11-28T01:30:20.901Z,6.72
2017-11-28T01:31:20.893Z,6.72
2017-11-28T01:32:20.884Z,6.75
2017-11-28T01:33:20.882Z,6.76
2017-11-28T01:34:20.871Z,6.72
2017-11-28T01:35:20.863Z,6.73
2017-11-28T01:36:20.855Z,6.75
2017-11-28T01:37:20.846Z,6.71
2017-11-28T01:38:20.839Z,6.79
2017-11-28T01:39:20.829Z,6.79
2017-11-28T01:40:20.822Z,6.78
2017-11-28T01:41:20.809Z,6.73
2017-11-28T01:42:20.805Z,6.68
2017-11-28T01:43:20.792Z,6.76
2017-11-28T01:44:20.784Z,6.86
2017-11-28T01:45:20.783Z,6.79
2017-11-28T01:46:20.774Z,6.78
2017-11-28T01:47:20.758Z,6.76
2017-11-28T01:48:20.750Z,6.79
2017-11-28T01:49:20.747Z,6.86
2017-11-28T01:50:20.737Z,6.81
2017-11-28T01:51:20.728Z,6.75
2017-11-28T01:52:20.720Z,6.82
2017-11-28T01:53:20.712Z,6.87
2017-11-28T01:54:20.704Z,6.79
2017-11-28T01:55:20.694Z,6.82
2017-11-28T01:56:20.687Z,6.82
2017-11-28T01:57:20.674Z,6.82
2017-11-28T01:58:20.665Z,6.87
2017-11-28T01:59:20.656Z,6.90
2017-11-28T02:00:20.648Z,6.81
2017-11-28T02:01:20.640Z,6.91
2017-11-28T02:02:20.631Z,6.86
2017-11-28T02:03:20.624Z,6.83
2017-11-28T02:04:20.614Z,6.89
2017-11-28T02:05:20.610Z,6.90
2017-11-28T02:06:20.603Z,6.87
2017-11-28T02:07:20.594Z,6.96
2017-11-28T02:08:20.585Z,6.93
2017-11-28T02:09:20.577Z,6.90
2017-11-28T02:10:20.568Z,6.91
2017-11-28T02:11:20.559Z,6.83
2017-11-28T02:12:20.551Z,6.93
2017-11-28T02:13:20.539Z,6.87
2017-11-28T02:14:20.532Z,6.94
2017-11-28T02:15:20.522Z,6.99
2017-11-28T02:16:20.513Z,6.90
2017-11-28T02:17:20.509Z,6.91
2017-11-28T02:18:20.501Z,6.83
2017-11-28T02:19:20.496Z,6.90
2017-11-28T02:20:20.484Z,6.93
2017-11-28T02:21:20.471Z,6.94
2017-11-28T02:22:20.464Z,6.91
2017-11-28T02:23:20.455Z,6.83
2017-11-28T02:24:20.447Z,6.90
2017-11-28T02:25:20.438Z,6.93
2017-11-28T02:26:20.430Z,6.91
2017-11-28T02:27:20.424Z,6.91
2017-11-28T02:28:20.412Z,6.94
2017-11-28T02:29:20.408Z,6.93
2017-11-28T02:30:20.402Z,6.91
2017-11-28T02:31:20.392Z,6.87
2017-11-28T02:32:20.384Z,6.86
2017-11-28T02:33:20.375Z,6.93
2017-11-28T02:34:20.368Z,6.94
2017-11-28T02:35:20.358Z,6.94
2017-11-28T02:36:20.351Z,7.00
2017-11-28T02:37:20.338Z,7.05
2017-11-28T02:38:20.334Z,7.01
2017-11-28T02:39:20.319Z,7.05
2017-11-28T02:40:20.313Z,7.00
2017-11-28T02:41:20.303Z,7.04
2017-11-28T02:42:20.296Z,7.00
2017-11-28T02:43:20.286Z,6.99
2017-11-28T02:44:20.279Z,7.05
2017-11-28T02:45:20.276Z,7.05
2017-11-28T02:46:20.278Z,7.07
2017-11-28T02:47:20.258Z,7.05
2017-11-28T02:48:20.249Z,7.14
2017-11-28T02:49:20.238Z,7.05
2017-11-28T02:50:20.234Z,7.09
2017-11-28T02:51:20.219Z,7.09
2017-11-28T02:52:20.213Z,7.07
2017-11-28T02:53:20.204Z,7.08
2017-11-28T02:54:20.196Z,7.19
2017-11-28T02:55:20.187Z,7.09
2017-11-28T02:56:20.178Z,7.01
2017-11-28T02:57:20.170Z,7.08
2017-11-28T02:58:20.162Z,7.14
2017-11-28T02:59:20.154Z,7.14
2017-11-28T03:00:20.145Z,7.01
2017-11-28T03:01:20.136Z,7.04
2017-11-28T03:02:20.131Z,7.14
2017-11-28T03:03:20.120Z,7.14
2017-11-28T03:04:20.116Z,7.12
2017-11-28T03:05:20.108Z,7.18
2017-11-28T03:06:20.100Z,7.11
2017-11-28T03:07:20.092Z,7.14
2017-11-28T03:08:20.083Z,7.12
2017-11-28T03:09:20.071Z,7.15
2017-11-28T03:10:20.062Z,7.19
2017-11-28T03:11:20.053Z,7.14
2017-11-28T03:12:20.046Z,7.15
2017-11-28T03:13:20.039Z,7.19
2017-11-28T03:14:20.029Z,7.14
2017-11-28T03:15:20.027Z,7.15
2017-11-28T03:16:20.013Z,7.14
2017-11-28T03:17:20.009Z,7.16
2017-11-28T03:18:20.002Z,7.12
2017-11-28T03:19:19.991Z,7.14
2017-11-28T03:20:19.984Z,7.14
2017-11-28T03:21:19.971Z,7.15
2017-11-28T03:22:19.963Z,7.18
2017-11-28T03:23:19.954Z,7.14
2017-11-28T03:24:19.947Z,7.08
2017-11-28T03:25:19.951Z,7.14
2017-11-28T03:26:19.937Z,7.15
2017-11-28T03:27:19.929Z,7.14
2017-11-28T03:28:19.917Z,7.14
2017-11-28T03:29:19.909Z,7.16
2017-11-28T03:30:19.903Z,7.15
2017-11-28T03:31:19.894Z,7.07
2017-11-28T03:32:19.885Z,7.11
2017-11-28T03:33:19.870Z,7.07
2017-11-28T03:34:19.862Z,7.14
2017-11-28T03:35:19.867Z,7.19
2017-11-28T03:36:19.845Z,7.14
2017-11-28T03:37:19.838Z,7.12
2017-11-28T03:38:19.831Z,7.16
2017-11-28T03:39:19.820Z,7.18
2017-11-28T03:40:19.811Z,7.16
2017-11-28T03:41:19.810Z,7.18
2017-11-28T03:42:19.802Z,7.12
2017-11-28T03:43:19.792Z,7.15
2017-11-28T03:44:19.784Z,7.15
2017-11-28T03:45:19.775Z,7.16
2017-11-28T03:46:19.767Z,7.14
2017-11-28T03:47:19.757Z,7.18
2017-11-28T03:48:19.751Z,7.16
2017-11-28T03:49:19.743Z,7.15
2017-11-28T03:50:19.732Z,7.15
2017-11-28T03:51:19.721Z,7.16
2017-11-28T03:52:19.713Z,7.14
2017-11-28T03:53:19.706Z,7.15
2017-11-28T03:54:19.697Z,7.18
2017-11-28T03:55:19.692Z,7.16
2017-11-28T03:56:19.680Z,7.27
2017-11-28T03:57:19.676Z,7.18
2017-11-28T03:58:19.670Z,7.27
2017-11-28T03:59:19.659Z,7.24
2017-11-28T04:00:19.652Z,7.21
2017-11-28T04:01:19.645Z,7.23
2017-11-28T04:02:19.636Z,7.19
2017-11-28T04:03:19.626Z,7.24
2017-11-28T04:04:19.620Z,7.29
2017-11-28T04:05:19.606Z,7.27
2017-11-28T04:06:19.600Z,7.33
2017-11-28T04:07:19.590Z,7.29
2017-11-28T04:08:19.585Z,7.18
2017-11-28T04:09:19.574Z,7.27
2017-11-28T04:10:19.566Z,7.27
2017-11-28T04:11:19.557Z,7.23
2017-11-28T04:12:19.551Z,7.26
2017-11-28T04:13:19.545Z,7.21
2017-11-28T04:14:19.538Z,7.24
2017-11-28T04:15:19.530Z,7.19
2017-11-28T04:16:19.521Z,7.15
2017-11-28T04:17:19.514Z,7.14
2017-11-28T04:18:19.506Z,7.12
2017-11-28T04:19:19.497Z,7.14
2017-11-28T04:20:19.488Z,7.15
2017-11-28T04:21:19.478Z,7.18
2017-11-28T04:22:19.469Z,7.18
2017-11-28T04:23:19.461Z,7.26
2017-11-28T04:24:19.456Z,7.15
2017-11-28T04:25:19.449Z,7.18
2017-11-28T04:26:19.441Z,7.15
2017-11-28T04:27:19.432Z,7.19
2017-11-28T04:28:19.424Z,7.14
2017-11-28T04:29:19.412Z,7.16
2017-11-28T04:30:19.405Z,7.11
2017-11-28T04:31:19.397Z,7.16
2017-11-28T04:32:19.387Z,7.15
2017-11-28T04:33:19.381Z,7.11
2017-11-28T04:34:19.371Z,7.14
2017-11-28T04:35:19.364Z,7.08
2017-11-28T04:36:19.356Z,7.12
2017-11-28T04:37:19.350Z,7.07
2017-11-28T04:38:19.343Z,7.15
2017-11-28T04:39:19.333Z,7.07
2017-11-28T04:40:19.325Z,7.05
2017-11-28T04:41:19.320Z,7.09
2017-11-28T04:42:19.309Z,7.01
2017-11-28T04:43:19.302Z,7.04
2017-11-28T04:44:19.294Z,7.00
2017-11-28T04:45:19.281Z,6.97
2017-11-28T04:46:19.274Z,7.01
2017-11-28T04:47:19.264Z,7.09
2017-11-28T04:48:19.256Z,7.01
2017-11-28T04:49:19.248Z,7.07
2017-11-28T04:50:19.240Z,7.00
2017-11-28T04:51:19.231Z,7.01
2017-11-28T04:52:19.224Z,6.97
2017-11-28T04:53:19.219Z,7.00
2017-11-28T04:54:19.211Z,7.01
2017-11-28T04:55:19.204Z,7.05
2017-11-28T04:56:19.195Z,7.00
2017-11-28T04:57:19.186Z,6.93
2017-11-28T04:58:19.182Z,7.00
2017-11-28T04:59:19.172Z,6.91
2017-11-28T05:00:19.161Z,6.93
2017-11-28T05:01:19.148Z,6.93
2017-11-28T05:02:19.141Z,6.89
2017-11-28T05:03:19.131Z,6.90
2017-11-28T05:04:19.124Z,6.96
2017-11-28T05:05:19.116Z,6.99
2017-11-28T05:06:19.107Z,6.93
2017-11-28T05:07:19.099Z,6.91
2017-11-28T05:08:19.090Z,6.99
2017-11-28T05:09:19.086Z,6.94
2017-11-28T05:10:19.079Z,6.96
2017-11-28T05:11:19.069Z,6.91
2017-11-28T05:12:19.061Z,6.97
2017-11-28T05:13:19.053Z,6.93
2017-11-28T05:14:19.048Z,6.94
2017-11-28T05:15:19.034Z,6.96
2017-11-28T05:16:19.026Z,6.86
2017-11-28T05:17:19.015Z,6.97
2017-11-28T05:18:19.006Z,6.87
2017-11-28T05:19:18.997Z,6.87
2017-11-28T05:20:18.988Z,6.96
2017-11-28T05:21:18.981Z,6.93
2017-11-28T05:22:18.973Z,6.82
2017-11-28T05:23:18.962Z,6.89
2017-11-28T05:24:18.954Z,6.89
2017-11-28T05:25:18.952Z,6.90
2017-11-28T05:26:18.942Z,6.90
2017-11-28T05:27:18.933Z,6.91
2017-11-28T05:28:18.934Z,6.90
2017-11-28T05:29:18.913Z,6.89
2017-11-28T05:30:18.905Z,6.93
2017-11-28T05:31:18.896Z,6.81
2017-11-28T05:32:18.887Z,6.91
2017-11-28T05:33:18.882Z,6.89
2017-11-28T05:34:18.874Z,6.86
2017-11-28T05:35:18.865Z,6.91
2017-11-28T05:36:18.858Z,6.89
2017-11-28T05:37:18.849Z,6.90
2017-11-28T05:38:18.841Z,6.89
2017-11-28T05:39:18.832Z,6.69
2017-11-28T05:40:18.824Z,6.82
2017-11-28T05:41:18.811Z,6.78
2017-11-28T05:42:18.801Z,6.72
2017-11-28T05:43:18.794Z,6.71
2017-11-28T05:44:18.787Z,6.75
2017-11-28T05:45:18.779Z,6.61
2017-11-28T05:46:18.768Z,6.64
2017-11-28T05:47:18.758Z,6.58
2017-11-28T05:48:18.750Z,6.64
2017-11-28T05:49:18.747Z,6.64
2017-11-28T05:50:18.740Z,6.60
2017-11-28T05:51:18.729Z,6.63
2017-11-28T05:52:18.719Z,6.58
2017-11-28T05:53:18.712Z,6.65
2017-11-28T05:54:18.703Z,6.61
2017-11-28T05:55:18.694Z,6.57
2017-11-28T05:56:18.686Z,6.53
2017-11-28T05:57:18.679Z,6.50
2017-11-28T05:58:18.663Z,6.53
2017-11-28T05:59:18.657Z,6.45
2017-11-28T06:00:18.647Z,6.50
2017-11-28T06:01:18.637Z,6.39
2017-11-28T06:02:18.636Z,6.45
2017-11-28T06:03:18.620Z,6.25
2017-11-28T06:04:18.618Z,6.33
2017-11-28T06:05:18.607Z,6.30
2017-11-28T06:06:18.597Z,6.32
2017-11-28T06:07:18.587Z,6.30
2017-11-28T06:08:18.579Z,6.32
2017-11-28T06:09:18.570Z,6.35
2017-11-28T06:10:18.562Z,6.25
2017-11-28T06:11:18.552Z,6.24
2017-11-28T06:12:18.544Z,6.21
2017-11-28T06:13:18.530Z,6.24
2017-11-28T06:14:18.522Z,6.14
2017-11-28T06:15:18.512Z,6.21
2017-11-28T06:16:18.504Z,6.11
2017-11-28T06:17:18.494Z,6.24
2017-11-28T06:18:18.486Z,6.08
2017-11-28T06:19:18.477Z,6.17
2017-11-28T06:20:18.468Z,6.10
2017-11-28T06:21:18.464Z,6.13
2017-11-28T06:22:18.454Z,6.16
2017-11-28T06:23:18.444Z,6.13
2017-11-28T06:24:18.434Z,6.10
2017-11-28T06:25:18.426Z,6.08
2017-11-28T06:26:18.418Z,5.92
2017-11-28T06:27:18.408Z,5.93
2017-11-28T06:28:18.397Z,5.98
2017-11-28T06:29:18.385Z,6.08
2017-11-28T06:30:18.376Z,5.99
2017-11-28T06:31:18.366Z,5.98
2017-11-28T06:32:18.357Z,5.95
2017-11-28T06:33:18.360Z,5.96
2017-11-28T06:34:18.343Z,5.99
2017-11-28T06:35:18.347Z,6.03
2017-11-28T06:36:18.326Z,5.98
2017-11-28T06:37:18.312Z,5.95
2017-11-28T06:38:18.302Z,5.93
2017-11-28T06:39:18.293Z,5.98
2017-11-28T06:40:18.284Z,6.10
2017-11-28T06:41:18.276Z,6.05
2017-11-28T06:42:18.267Z,6.10
2017-11-28T06:43:18.255Z,6.08
2017-11-28T06:44:18.247Z,6.14
2017-11-28T06:45:18.242Z,6.06
2017-11-28T06:46:18.232Z,6.06
2017-11-28T06:47:18.223Z,6.03
2017-11-28T06:48:18.213Z,6.10
2017-11-28T06:49:18.205Z,6.06
2017-11-28T06:50:18.196Z,6.10
2017-11-28T06:51:18.184Z,6.03
2017-11-28T06:52:18.174Z,5.96
2017-11-28T06:53:18.162Z,5.92
2017-11-28T06:54:18.158Z,5.96
2017-11-28T06:55:18.142Z,5.98
2017-11-28T06:56:18.134Z,5.96
2017-11-28T06:57:18.125Z,5.99
2017-11-28T06:58:18.115Z,5.95
2017-11-28T06:59:18.106Z,5.95
2017-11-28T07:00:18.096Z,5.90
2017-11-28T07:01:18.092Z,5.99
2017-11-28T07:02:18.082Z,5.98
2017-11-28T07:03:18.072Z,5.96
2017-11-28T07:04:18.063Z,5.98
2017-11-28T07:05:18.056Z,5.95
2017-11-28T07:06:18.049Z,5.93
2017-11-28T07:07:18.035Z,5.95
2017-11-28T07:08:18.032Z,5.95
2017-11-28T07:09:18.011Z,5.93
2017-11-28T07:10:18.002Z,5.95
2017-11-28T07:11:17.992Z,5.87
2017-11-28T07:12:17.984Z,5.84
2017-11-28T07:13:17.976Z,5.77
2017-11-28T07:14:17.964Z,5.83
2017-11-28T07:15:17.954Z,5.88
2017-11-28T07:16:17.946Z,5.84
2017-11-28T07:17:17.940Z,5.85
2017-11-28T07:18:17.938Z,5.78
2017-11-28T07:19:17.921Z,5.80
2017-11-28T07:20:17.911Z,5.80
2017-11-28T07:21:17.902Z,5.80
2017-11-28T07:22:17.894Z,5.85
2017-11-28T07:23:17.883Z,5.84
2017-11-28T07:24:17.875Z,5.83
2017-11-28T07:25:17.862Z,5.88
2017-11-28T07:26:17.852Z,5.80
2017-11-28T07:27:17.854Z,5.80
2017-11-28T07:28:17.836Z,5.80
2017-11-28T07:29:17.823Z,5.84
2017-11-28T07:30:17.813Z,5.85
2017-11-28T07:31:17.803Z,5.88
2017-11-28T07:32:17.796Z,5.81
2017-11-28T07:33:17.791Z,5.80
2017-11-28T07:34:17.780Z,5.95
2017-11-28T07:35:17.770Z,5.87
2017-11-28T07:36:17.762Z,5.96
2017-11-28T07:37:17.749Z,5.93
2017-11-28T07:38:17.739Z,5.92
2017-11-28T07:39:17.730Z,5.98
2017-11-28T07:40:17.719Z,5.93
2017-11-28T07:41:17.715Z,6.03
2017-11-28T07:42:17.706Z,6.06
2017-11-28T07:43:17.695Z,6.11
2017-11-28T07:44:17.685Z,6.16
2017-11-28T07:45:17.679Z,6.13
2017-11-28T07:46:17.667Z,6.13
2017-11-28T07:47:17.658Z,6.16
2017-11-28T07:48:17.648Z,6.28
2017-11-28T07:49:17.636Z,6.36
2017-11-28T07:50:17.627Z,6.45
2017-11-28T07:51:17.616Z,6.46
2017-11-28T07:52:17.612Z,6.51
2017-11-28T07:53:17.599Z,6.48
2017-11-28T07:54:17.597Z,6.61
2017-11-28T07:55:17.581Z,6.61
2017-11-28T07:56:17.574Z,6.79
2017-11-28T07:57:17.568Z,6.90
2017-11-28T07:58:17.562Z,6.96
2017-11-28T07:59:17.552Z,6.89
2017-11-28T08:00:17.543Z,7.00
2017-11-28T08:01:17.532Z,7.14
2017-11-28T08:02:17.525Z,7.14
2017-11-28T08:03:17.515Z,7.32
2017-11-28T08:04:17.507Z,7.34
2017-11-28T08:05:17.496Z,7.34
2017-11-28T08:06:17.489Z,7.27
2017-11-28T08:07:17.479Z,7.30
2017-11-28T08:08:17.469Z,7.32
2017-11-28T08:09:17.489Z,7.14
2017-11-28T08:10:17.454Z,7.15
2017-11-28T08:11:17.446Z,7.14
2017-11-28T08:12:17.438Z,6.97
2017-11-28T08:13:17.434Z,7.05
2017-11-28T08:14:17.431Z,7.12
2017-11-28T08:15:17.419Z,7.21
2017-11-28T08:16:17.410Z,7.15
2017-11-28T08:17:17.403Z,7.07
2017-11-28T08:18:17.395Z,6.99
2017-11-28T08:19:17.386Z,7.01
2017-11-28T08:20:17.380Z,7.05
2017-11-28T08:21:17.376Z,6.94
2017-11-28T08:22:17.392Z,6.87
2017-11-28T08:23:17.351Z,6.89
2017-11-28T08:24:17.342Z,6.81
2017-11-28T08:25:17.334Z,6.79
2017-11-28T08:26:17.326Z,6.78
2017-11-28T08:27:17.341Z,6.90
2017-11-28T08:28:17.310Z,6.81
2017-11-28T08:29:17.308Z,6.93
2017-11-28T08:30:17.300Z,6.99
2017-11-28T08:31:17.290Z,6.96
2017-11-28T08:32:17.283Z,7.04
2017-11-28T08:33:17.276Z,7.16
2017-11-28T08:34:17.267Z,7.30
2017-11-28T08:35:17.259Z,7.48
2017-11-28T08:36:17.251Z,7.62
2017-11-28T08:37:17.240Z,7.77
2017-11-28T08:38:17.235Z,7.86
2017-11-28T08:39:17.223Z,8.06
2017-11-28T08:40:17.216Z,8.09
2017-11-28T08:41:17.214Z,8.10
2017-11-28T08:42:17.208Z,8.06
2017-11-28T08:43:17.196Z,8.31
2017-11-28T08:44:17.188Z,8.45
2017-11-28T08:45:17.178Z,8.54
2017-11-28T08:46:17.172Z,8.50
2017-11-28T08:47:17.163Z,8.40
2017-11-28T08:48:17.157Z,8.32
2017-11-28T08:49:17.148Z,8.27
2017-11-28T08:50:17.149Z,8.14
2017-11-28T08:51:17.134Z,8.00
2017-11-28T08:52:17.128Z,7.91
2017-11-28T08:53:17.129Z,8.00
2017-11-28T08:54:17.119Z,7.89
2017-11-28T08:55:17.110Z,7.76
2017-11-28T08:56:17.105Z,7.82
2017-11-28T08:57:17.102Z,7.74
2017-11-28T08:58:17.090Z,7.79
2017-11-28T08:59:17.087Z,7.86
2017-11-28T09:00:17.089Z,7.89
2017-11-28T09:01:17.079Z,7.86
2017-11-28T09:02:17.057Z,7.73
2017-11-28T09:03:17.050Z,7.76
2017-11-28T09:04:17.042Z,7.85
2017-11-28T09:05:17.035Z,7.91
2017-11-28T09:06:17.028Z,7.88
2017-11-28T09:07:17.020Z,8.20
2017-11-28T09:08:17.015Z,8.20
2017-11-28T09:09:17.012Z,8.34
2017-11-28T09:10:17.004Z,9.10
2017-11-28T09:11:16.997Z,10.17
2017-11-28T09:12:16.991Z,10.18
2017-11-28T09:13:16.984Z,10.22
2017-11-28T09:14:16.978Z,10.49
2017-11-28T09:15:16.971Z,10.54
2017-11-28T09:16:16.965Z,9.99
2017-11-28T09:17:16.954Z,9.77
2017-11-28T09:18:16.948Z,9.37
2017-11-28T09:19:16.943Z,9.37
2017-11-28T09:20:16.938Z,9.24
2017-11-28T09:21:16.937Z,9.37
2017-11-28T09:22:16.926Z,9.32
2017-11-28T09:23:16.925Z,9.15
2017-11-28T09:24:16.916Z,9.12
2017-11-28T09:25:16.914Z,9.01
2017-11-28T09:26:16.907Z,9.23
2017-11-28T09:27:16.902Z,9.16
2017-11-28T09:28:16.900Z,9.16
2017-11-28T09:29:16.891Z,9.15
2017-11-28T09:30:16.886Z,9.16
2017-11-28T09:31:16.879Z,9.22
2017-11-28T09:32:16.872Z,9.16
2017-11-28T09:33:16.864Z,9.32
2017-11-28T09:34:16.860Z,9.19
2017-11-28T09:35:16.853Z,9.42
2017-11-28T09:36:16.847Z,10.06
2017-11-28T09:37:16.844Z,10.09
2017-11-28T09:38:16.835Z,9.85
2017-11-28T09:39:16.834Z,9.73
2017-11-28T09:40:16.824Z,9.70
2017-11-28T09:41:16.824Z,9.71
2017-11-28T09:42:16.821Z,9.93
2017-11-28T09:43:16.812Z,9.92
2017-11-28T09:44:16.813Z,9.98
2017-11-28T09:45:16.804Z,9.53
2017-11-28T09:46:16.808Z,9.67
2017-11-28T09:47:16.795Z,9.56
2017-11-28T09:48:16.785Z,10.51
2017-11-28T09:49:16.775Z,10.11
2017-11-28T09:50:16.774Z,9.93
2017-11-28T09:51:16.766Z,9.91
2017-11-28T09:52:16.761Z,9.77
2017-11-28T09:53:16.756Z,9.80
2017-11-28T09:54:16.752Z,9.78
2017-11-28T09:55:16.746Z,9.71
2017-11-28T09:56:16.741Z,9.80
2017-11-28T09:57:16.740Z,9.77
2017-11-28T09:58:16.736Z,9.80
2017-11-28T09:59:16.731Z,9.77
2017-11-28T10:00:16.726Z,9.59
2017-11-28T10:01:16.720Z,9.41
2017-11-28T10:02:16.715Z,9.19
2017-11-28T10:03:16.708Z,9.10
2017-11-28T10:04:16.704Z,9.06
2017-11-28T10:05:16.694Z,9.12
2017-11-28T10:06:16.689Z,8.98
2017-11-28T10:07:16.683Z,9.15
2017-11-28T10:08:16.686Z,9.12
2017-11-28T10:09:16.672Z,9.10
2017-11-28T10:10:16.667Z,9.10
2017-11-28T10:11:16.661Z,9.15
2017-11-28T10:12:16.657Z,9.00
2017-11-28T10:13:16.654Z,8.98
2017-11-28T10:14:16.648Z,9.00
2017-11-28T10:15:16.643Z,8.97
2017-11-28T10:16:16.637Z,9.03
2017-11-28T10:17:16.632Z,8.88
2017-11-28T10:18:16.626Z,8.86
2017-11-28T10:19:16.619Z,8.91
2017-11-28T10:20:16.621Z,8.79
2017-11-28T10:21:16.605Z,8.58
2017-11-28T10:22:16.598Z,8.76
2017-11-28T10:23:16.592Z,8.88
2017-11-28T10:24:16.586Z,8.88
2017-11-28T10:25:16.580Z,8.89
2017-11-28T10:26:16.575Z,8.88
2017-11-28T10:27:16.590Z,9.13
2017-11-28T10:28:16.572Z,9.22
2017-11-28T10:29:16.559Z,8.91
2017-11-28T10:30:16.554Z,8.88
2017-11-28T10:31:16.547Z,8.85
2017-11-28T10:32:16.542Z,8.85
2017-11-28T10:33:16.537Z,8.98
2017-11-28T10:34:16.530Z,9.08
2017-11-28T10:35:16.527Z,9.01
2017-11-28T10:36:16.517Z,8.94
2017-11-28T10:37:16.507Z,8.93
2017-11-28T10:38:16.502Z,8.98
2017-11-28T10:39:16.498Z,9.06
2017-11-28T10:40:16.495Z,9.04
2017-11-28T10:41:16.484Z,8.96
2017-11-28T10:42:16.481Z,9.03
2017-11-28T10:43:16.471Z,9.13
2017-11-28T10:44:16.466Z,9.30
2017-11-28T10:45:16.464Z,9.32
2017-11-28T10:46:16.459Z,9.40
2017-11-28T10:47:16.451Z,9.44
2017-11-28T10:48:16.446Z,9.45
2017-11-28T10:49:16.436Z,9.50
2017-11-28T10:50:16.429Z,9.45
2017-11-28T10:51:16.426Z,9.49
2017-11-28T10:52:16.418Z,9.50
2017-11-28T10:53:16.416Z,9.52
2017-11-28T10:54:16.411Z,9.50
2017-11-28T10:55:16.404Z,9.50
2017-11-28T10:56:16.400Z,9.56
2017-11-28T10:57:16.394Z,9.62
2017-11-28T10:58:16.387Z,9.60
2017-11-28T10:59:16.383Z,9.68
2017-11-28T11:00:16.376Z,9.68
2017-11-28T11:01:16.372Z,9.62
2017-11-28T11:02:16.378Z,9.60
2017-11-28T11:03:16.353Z,9.44
2017-11-28T11:04:16.350Z,9.41
2017-11-28T11:05:16.344Z,9.31
2017-11-28T11:06:16.338Z,9.30
2017-11-28T11:07:16.331Z,9.38
2017-11-28T11:08:16.327Z,9.27
2017-11-28T11:09:16.326Z,9.42
2017-11-28T11:10:16.320Z,9.41
2017-11-28T11:11:16.313Z,9.38
2017-11-28T11:12:16.307Z,9.48
2017-11-28T11:13:16.301Z,9.48
2017-11-28T11:14:16.297Z,9.49
2017-11-28T11:15:16.290Z,9.45
2017-11-28T11:16:16.285Z,9.45
2017-11-28T11:17:16.275Z,9.53
2017-11-28T11:18:16.268Z,9.41
2017-11-28T11:19:16.262Z,9.41
2017-11-28T11:20:16.258Z,9.41
2017-11-28T11:21:16.251Z,9.35
2017-11-28T11:22:16.251Z,9.45
2017-11-28T11:23:16.239Z,9.41
2017-11-28T11:24:16.234Z,9.40
2017-11-28T11:25:16.232Z,9.42
2017-11-28T11:26:16.225Z,9.60
2017-11-28T11:27:16.220Z,9.65
2017-11-28T11:28:16.214Z,9.63
2017-11-28T11:29:16.208Z,9.62
2017-11-28T11:30:16.202Z,9.63
2017-11-28T11:31:16.195Z,9.63
2017-11-28T11:32:16.189Z,9.52
2017-11-28T11:33:16.185Z,9.59
2017-11-28T11:34:16.176Z,9.58
2017-11-28T11:35:16.172Z,9.60
2017-11-28T11:36:16.162Z,9.63
2017-11-28T11:37:16.157Z,9.71
2017-11-28T11:38:16.155Z,9.59
2017-11-28T11:39:16.145Z,9.53
2017-11-28T11:40:16.139Z,9.45
2017-11-28T11:41:16.138Z,9.53
2017-11-28T11:42:16.133Z,9.45
2017-11-28T11:43:16.125Z,9.44
2017-11-28T11:44:16.122Z,9.45
2017-11-28T11:45:16.116Z,9.48
2017-11-28T11:46:16.110Z,9.42
2017-11-28T11:47:16.104Z,9.45
2017-11-28T11:48:16.098Z,9.58
2017-11-28T11:49:16.088Z,9.49
2017-11-28T11:50:16.083Z,9.55
2017-11-28T11:51:16.076Z,9.40
2017-11-28T11:52:16.071Z,9.41
2017-11-28T11:53:16.069Z,9.40
2017-11-28T11:54:16.065Z,9.45
2017-11-28T11:55:16.058Z,9.48
2017-11-28T11:56:16.052Z,9.50
2017-11-28T11:57:16.043Z,9.56
2017-11-28T11:58:16.038Z,9.45
2017-11-28T11:59:16.040Z,9.44
2017-11-28T12:00:16.026Z,9.45
2017-11-28T12:01:16.021Z,9.30
2017-11-28T12:02:16.014Z,9.20
2017-11-28T12:03:16.009Z,9.30
2017-11-28T12:04:16.010Z,9.40
2017-11-28T12:05:16.001Z,9.45
2017-11-28T12:06:15.996Z,9.52
2017-11-28T12:07:15.990Z,9.52
2017-11-28T12:08:15.984Z,9.56
2017-11-28T12:09:15.980Z,9.58
2017-11-28T12:10:15.973Z,9.62
2017-11-28T12:11:15.967Z,9.68
2017-11-28T12:12:15.960Z,9.67
2017-11-28T12:13:15.951Z,9.65
2017-11-28T12:14:15.946Z,9.65
2017-11-28T12:15:15.942Z,9.70
2017-11-28T12:16:15.933Z,9.77
2017-11-28T12:17:15.928Z,9.68
2017-11-28T12:18:15.934Z,9.62
2017-11-28T12:19:15.916Z,9.68
2017-11-28T12:20:15.912Z,9.59
2017-11-28T12:21:15.909Z,9.58
2017-11-28T12:22:15.902Z,9.62
2017-11-28T12:23:15.906Z,9.62
2017-11-28T12:24:15.892Z,9.70
2017-11-28T12:25:15.889Z,9.58
2017-11-28T12:26:15.916Z,9.62
2017-11-28T12:27:15.875Z,9.59
2017-11-28T12:28:15.869Z,9.70
2017-11-28T12:29:15.858Z,9.56
2017-11-28T12:30:15.856Z,9.62
2017-11-28T12:31:15.847Z,9.65
2017-11-28T12:32:15.842Z,9.58
2017-11-28T12:33:15.836Z,9.62
2017-11-28T12:34:15.832Z,9.56
2017-11-28T12:35:15.825Z,9.50
2017-11-28T12:36:15.818Z,9.53
2017-11-28T12:37:15.818Z,9.48
2017-11-28T12:38:15.814Z,9.48
2017-11-28T12:39:15.806Z,9.41
2017-11-28T12:40:15.803Z,9.19
2017-11-28T12:41:15.795Z,9.17
2017-11-28T12:42:15.788Z,9.30
2017-11-28T12:43:15.783Z,9.34
2017-11-28T12:44:15.778Z,9.26
2017-11-28T12:45:15.768Z,9.32
2017-11-28T12:46:15.762Z,9.30
2017-11-28T12:47:15.754Z,9.17
2017-11-28T12:48:15.748Z,9.30
2017-11-28T12:49:15.747Z,9.16
2017-11-28T12:50:15.738Z,9.20
2017-11-28T12:51:15.733Z,9.27
2017-11-28T12:52:15.725Z,9.26
2017-11-28T12:53:15.723Z,9.26
2017-11-28T12:54:15.716Z,9.32
2017-11-28T12:55:15.711Z,9.38
2017-11-28T12:56:15.703Z,9.40
2017-11-28T12:57:15.693Z,9.40
2017-11-28T12:58:15.688Z,9.40
2017-11-28T12:59:15.679Z,9.34
2017-11-28T13:00:15.675Z,9.30
2017-11-28T13:01:15.674Z,9.27
2017-11-28T13:02:15.666Z,9.17
2017-11-28T13:03:15.659Z,9.22
2017-11-28T13:04:15.654Z,9.15
2017-11-28T13:05:15.649Z,9.17
2017-11-28T13:06:15.643Z,9.16
2017-11-28T13:07:15.635Z,9.17
2017-11-28T13:08:15.629Z,9.19
2017-11-28T13:09:15.619Z,9.16
2017-11-28T13:10:15.612Z,9.15
2017-11-28T13:11:15.606Z,9.13
2017-11-28T13:12:15.598Z,9.15
2017-11-28T13:13:15.594Z,9.15
2017-11-28T13:14:15.589Z,9.15
2017-11-28T13:15:15.581Z,9.22
2017-11-28T13:16:15.581Z,9.16
2017-11-28T13:17:15.572Z,9.20
2017-11-28T13:18:15.568Z,9.22